createdAt,value
2018-04-29T00:00:27.640Z,70.60
2018-04-29T00:03:03.083Z,70.60
2018-04-29T00:05:38.328Z,69.80
2018-04-29T00:08:13.766Z,70.00
2018-04-29T00:10:48.996Z,71.10
2018-04-29T00:13:24.261Z,72.10
2018-04-29T00:15:59.523Z,71.80
2018-04-29T00:18:34.633Z,71.20
2018-04-29T00:21:10.176Z,71.30
2018-04-29T00:23:45.256Z,71.20
2018-04-29T00:26:21.303Z,72.30
2018-04-29T00:28:56.493Z,72.30
2018-04-29T00:31:31.646Z,73.00
2018-04-29T00:34:08.673Z,73.40
2018-04-29T00:36:44.619Z,72.80
2018-04-29T00:39:19.716Z,72.80
2018-04-29T00:41:55.000Z,73.10
2018-04-29T00:44:30.281Z,72.50
2018-04-29T00:47:05.546Z,72.80
2018-04-29T00:49:40.823Z,73.80
2018-04-29T00:52:16.102Z,74.30
2018-04-29T00:54:52.244Z,75.10
2018-04-29T00:57:27.402Z,75.20
2018-04-29T01:00:02.674Z,75.10
2018-04-29T01:02:37.999Z,75.80
2018-04-29T01:05:13.353Z,75.50
2018-04-29T01:07:48.581Z,75.40
2018-04-29T01:10:24.025Z,75.90
2018-04-29T01:12:59.273Z,76.40
2018-04-29T01:15:35.242Z,77.50
2018-04-29T01:18:10.424Z,76.70
2018-04-29T01:20:45.512Z,77.00
2018-04-29T01:23:21.578Z,77.10
2018-04-29T01:25:57.528Z,77.60
2018-04-29T01:28:32.854Z,77.60
2018-04-29T01:31:08.149Z,78.00
2018-04-29T01:33:43.473Z,77.90
2018-04-29T01:36:18.780Z,78.20
2018-04-29T01:38:54.026Z,78.60
2018-04-29T01:41:29.309Z,78.00
2018-04-29T01:44:04.588Z,78.60
2018-04-29T01:46:39.979Z,78.60
2018-04-29T01:49:16.109Z,78.20
2018-04-29T01:51:51.441Z,78.40
2018-04-29T01:54:28.429Z,77.50
2018-04-29T01:57:03.507Z,77.50
2018-04-29T01:59:38.659Z,77.60
2018-04-29T02:02:13.982Z,77.30
2018-04-29T02:04:49.394Z,77.30
2018-04-29T02:07:24.617Z,76.90
2018-04-29T02:09:59.950Z,77.40
2018-04-29T02:12:35.088Z,77.70
2018-04-29T02:15:10.338Z,77.40
2018-04-29T02:17:45.679Z,77.80
2018-04-29T02:20:20.902Z,77.90
2018-04-29T02:22:56.991Z,78.80
2018-04-29T02:25:32.139Z,78.70
2018-04-29T02:28:07.348Z,79.60
2018-04-29T02:30:42.603Z,79.30
2018-04-29T02:33:17.779Z,79.70
2018-04-29T02:35:53.083Z,79.60
2018-04-29T02:38:29.075Z,80.20
2018-04-29T02:41:05.009Z,81.00
2018-04-29T02:43:40.963Z,80.90
2018-04-29T02:46:16.928Z,81.50
2018-04-29T02:48:52.131Z,81.50
2018-04-29T02:51:27.482Z,82.00
2018-04-29T02:54:03.454Z,83.20
2018-04-29T02:56:39.461Z,83.50
2018-04-29T02:59:14.629Z,83.50
2018-04-29T03:01:49.938Z,83.20
2018-04-29T03:04:27.092Z,83.50
2018-04-29T03:07:03.222Z,84.20
2018-04-29T03:09:38.947Z,84.10
2018-04-29T03:12:14.049Z,85.10
2018-04-29T03:14:49.164Z,84.90
2018-04-29T03:17:24.520Z,85.30
2018-04-29T03:19:59.924Z,85.60
2018-04-29T03:22:35.064Z,85.40
2018-04-29T03:25:10.346Z,85.70
2018-04-29T03:27:45.656Z,86.20
2018-04-29T03:30:21.087Z,85.30
2018-04-29T03:32:56.415Z,85.30
2018-04-29T03:35:31.547Z,84.90
2018-04-29T03:38:06.919Z,85.30
2018-04-29T03:40:42.032Z,85.50
2018-04-29T03:43:17.346Z,85.30
2018-04-29T03:45:52.532Z,85.40
2018-04-29T03:48:27.763Z,85.40
2018-04-29T03:51:03.818Z,85.10
2018-04-29T03:53:38.943Z,85.10
2018-04-29T03:56:14.199Z,84.70
2018-04-29T03:59:07.533Z,84.40
2018-04-29T04:02:00.711Z,84.80
2018-04-29T04:04:36.664Z,84.60
2018-04-29T04:07:11.998Z,84.70
2018-04-29T04:09:48.302Z,84.30
2018-04-29T04:12:23.719Z,84.40
2018-04-29T04:14:58.974Z,84.60
2018-04-29T04:17:34.171Z,85.20
2018-04-29T04:20:09.426Z,85.10
2018-04-29T04:22:44.766Z,84.60
2018-04-29T04:25:20.003Z,86.00
2018-04-29T04:27:55.353Z,86.10
2018-04-29T04:30:30.709Z,86.50
2018-04-29T04:33:06.007Z,87.10
2018-04-29T04:35:41.263Z,87.30
2018-04-29T04:38:16.516Z,87.10
2018-04-29T04:40:51.762Z,87.60
2018-04-29T04:43:27.822Z,88.00
2018-04-29T04:46:03.150Z,88.00
2018-04-29T04:48:38.428Z,87.90
2018-04-29T04:51:13.633Z,88.50
2018-04-29T04:53:48.864Z,88.50
2018-04-29T04:56:24.106Z,88.90
2018-04-29T04:58:59.380Z,89.50
2018-04-29T05:01:35.321Z,90.50
2018-04-29T05:04:11.290Z,90.70
2018-04-29T05:06:46.472Z,90.70
2018-04-29T05:09:21.760Z,90.30
2018-04-29T05:11:57.071Z,89.30
2018-04-29T05:14:32.222Z,88.70
2018-04-29T05:17:07.560Z,87.70
2018-04-29T05:19:42.808Z,87.10
2018-04-29T05:22:18.771Z,85.70
2018-04-29T05:24:54.169Z,85.70
2018-04-29T05:27:29.341Z,85.90
2018-04-29T05:30:05.255Z,86.00
2018-04-29T05:32:40.604Z,82.90
2018-04-29T05:35:15.931Z,81.50
2018-04-29T05:37:51.271Z,78.70
2018-04-29T05:40:27.217Z,78.90
2018-04-29T05:43:02.350Z,78.90
2018-04-29T05:45:37.862Z,77.70
2018-04-29T05:48:13.063Z,75.10
2018-04-29T05:50:48.351Z,72.30
2018-04-29T05:53:23.680Z,69.60
2018-04-29T05:55:59.646Z,66.60
2018-04-29T05:58:34.977Z,66.50
2018-04-29T06:01:10.333Z,66.00
2018-04-29T06:03:45.837Z,66.10
2018-04-29T06:06:21.195Z,66.60
2018-04-29T06:08:59.077Z,65.70
2018-04-29T06:11:36.197Z,65.70
2018-04-29T06:14:11.507Z,66.90
2018-04-29T06:16:47.674Z,67.50
2018-04-29T06:19:23.217Z,66.10
2018-04-29T06:21:59.136Z,69.90
2018-04-29T06:24:35.328Z,69.90
2018-04-29T06:27:10.616Z,73.50
2018-04-29T06:29:45.907Z,82.00
2018-04-29T06:32:22.049Z,88.60
2018-04-29T06:34:57.939Z,86.70
2018-04-29T06:50:27.618Z,99.00
2018-04-29T06:53:02.704Z,99.90
2018-04-29T06:55:38.559Z,99.90
2018-04-29T06:58:14.602Z,99.90
2018-04-29T07:00:50.664Z,99.90
2018-04-29T07:03:25.865Z,99.90
2018-04-29T07:06:01.031Z,99.90
2018-04-29T07:08:36.277Z,99.90
2018-04-29T07:11:11.580Z,99.40
2018-04-29T07:13:47.477Z,86.50
2018-04-29T07:16:22.923Z,86.50
2018-04-29T07:18:58.904Z,79.10
2018-04-29T07:21:34.128Z,79.00
2018-04-29T07:24:09.439Z,74.50
2018-04-29T07:26:44.738Z,69.70
2018-04-29T07:29:20.650Z,64.40
2018-04-29T07:31:56.683Z,60.40
2018-04-29T07:34:31.826Z,60.40
2018-04-29T07:37:07.824Z,60.00
2018-04-29T07:39:43.773Z,62.50
2018-04-29T07:42:19.728Z,64.80
2018-04-29T07:44:54.772Z,64.80
2018-04-29T07:47:30.123Z,66.20
2018-04-29T07:50:05.450Z,69.80
2018-04-29T07:52:41.643Z,76.30
2018-04-29T07:55:16.642Z,76.10
2018-04-29T07:57:51.870Z,73.90
2018-04-29T08:00:29.223Z,74.50
2018-04-29T08:03:05.229Z,75.60
2018-04-29T08:05:40.565Z,75.60
2018-04-29T08:08:15.933Z,75.60
2018-04-29T08:10:51.182Z,78.60
2018-04-29T08:13:26.693Z,80.70
2018-04-29T08:16:02.036Z,82.90
2018-04-29T08:18:37.289Z,83.60
2018-04-29T08:21:12.650Z,84.60
2018-04-29T08:23:48.120Z,85.70
2018-04-29T08:26:23.233Z,85.20
2018-04-29T08:28:58.355Z,81.40
2018-04-29T08:31:33.610Z,83.60
2018-04-29T08:34:08.828Z,82.30
2018-04-29T08:36:44.131Z,82.40
2018-04-29T08:39:20.124Z,79.90
2018-04-29T08:41:57.439Z,79.90
2018-04-29T08:44:33.866Z,83.10
2018-04-29T08:47:08.995Z,83.10
2018-04-29T08:49:44.367Z,82.00
2018-04-29T08:52:19.842Z,79.80
2018-04-29T08:54:55.019Z,79.30
2018-04-29T08:57:30.258Z,77.60
2018-04-29T09:00:05.601Z,75.60
2018-04-29T09:02:40.943Z,77.90
2018-04-29T09:05:16.969Z,78.20
2018-04-29T09:07:52.405Z,78.20
2018-04-29T09:10:27.684Z,78.20
2018-04-29T09:13:02.975Z,78.20
2018-04-29T09:15:38.786Z,75.60
2018-04-29T09:18:14.144Z,76.10
2018-04-29T09:20:55.607Z,77.30
2018-04-29T09:23:33.853Z,79.30
2018-04-29T09:26:09.939Z,78.70
2018-04-29T09:28:45.117Z,78.70
2018-04-29T09:31:20.441Z,77.00
2018-04-29T09:33:55.906Z,79.20
2018-04-29T09:36:31.883Z,73.00
2018-04-29T09:39:07.081Z,73.00
2018-04-29T09:41:42.124Z,71.50
2018-04-29T09:44:18.145Z,70.40
2018-04-29T09:46:53.530Z,70.30
2018-04-29T09:49:28.887Z,66.00
2018-04-29T09:52:04.074Z,68.00
2018-04-29T09:54:39.312Z,70.90
2018-04-29T09:57:14.582Z,73.10
2018-04-29T09:59:49.932Z,73.60
2018-04-29T10:02:25.092Z,76.50
2018-04-29T10:05:00.226Z,78.80
2018-04-29T10:07:35.560Z,77.00
2018-04-29T10:10:10.963Z,77.70
2018-04-29T10:12:46.866Z,77.80
2018-04-29T10:15:22.060Z,77.70
2018-04-29T10:17:57.488Z,72.70
2018-04-29T10:20:32.692Z,69.70
2018-04-29T10:23:08.643Z,64.60
2018-04-29T10:25:44.645Z,59.20
2018-04-29T10:28:20.656Z,59.20
2018-04-29T10:30:56.344Z,59.10
2018-04-29T10:33:32.004Z,57.30
2018-04-29T10:36:08.075Z,54.10
2018-04-29T10:38:43.347Z,54.10
2018-04-29T10:41:18.664Z,54.70
2018-04-29T10:43:53.912Z,52.60
2018-04-29T10:46:29.136Z,51.00
2018-04-29T10:49:04.460Z,49.50
2018-04-29T10:51:39.607Z,48.40
2018-04-29T10:54:15.580Z,46.30
2018-04-29T10:56:50.877Z,46.30
2018-04-29T10:59:25.986Z,46.50
2018-04-29T11:02:01.089Z,47.70
2018-04-29T11:04:36.463Z,47.20
2018-04-29T11:07:12.519Z,48.30
2018-04-29T11:09:47.648Z,48.30
2018-04-29T11:12:22.775Z,48.70
2018-04-29T11:14:58.935Z,47.10
2018-04-29T11:17:34.288Z,47.10
2018-04-29T11:20:09.557Z,47.80
2018-04-29T11:22:44.904Z,50.40
2018-04-29T11:25:20.223Z,49.60
2018-04-29T11:27:55.586Z,48.50
2018-04-29T11:30:31.544Z,47.20
2018-04-29T11:33:06.650Z,47.20
2018-04-29T11:35:42.019Z,47.90
2018-04-29T11:38:17.435Z,47.50
2018-04-29T11:40:52.562Z,47.90
2018-04-29T11:43:27.823Z,45.80
2018-04-29T11:46:03.801Z,46.60
2018-04-29T11:48:39.809Z,49.20
2018-04-29T11:51:16.628Z,49.40
2018-04-29T11:53:51.954Z,49.40
2018-04-29T11:56:27.187Z,47.50
2018-04-29T11:59:02.492Z,46.80
2018-04-29T12:01:37.804Z,46.30
2018-04-29T12:04:12.931Z,46.40
2018-04-29T12:06:48.253Z,46.40
2018-04-29T12:09:23.687Z,45.80
2018-04-29T12:11:58.876Z,46.40
2018-04-29T12:14:34.163Z,46.30
2018-04-29T12:17:09.504Z,45.00
2018-04-29T12:19:44.887Z,46.00
2018-04-29T12:22:20.093Z,46.50
2018-04-29T12:24:55.207Z,48.30
2018-04-29T12:27:31.253Z,46.70
2018-04-29T12:30:07.352Z,46.70
2018-04-29T12:32:42.575Z,46.60
2018-04-29T12:35:17.945Z,47.40
2018-04-29T12:37:53.091Z,46.00
2018-04-29T12:40:28.385Z,46.70
2018-04-29T12:43:03.753Z,48.20
2018-04-29T12:45:39.104Z,47.20
2018-04-29T12:48:14.395Z,47.80
2018-04-29T12:50:49.779Z,45.90
2018-04-29T12:53:25.113Z,45.80
2018-04-29T12:56:00.996Z,45.90
2018-04-29T12:58:36.163Z,45.90
2018-04-29T13:01:11.431Z,46.40
2018-04-29T13:03:46.762Z,45.70
2018-04-29T13:06:23.016Z,47.40
2018-04-29T13:08:58.193Z,45.20
2018-04-29T13:11:36.030Z,46.40
2018-04-29T13:14:11.225Z,46.20
2018-04-29T13:16:46.511Z,46.20
2018-04-29T13:19:21.756Z,45.70
2018-04-29T13:21:56.903Z,47.10
2018-04-29T13:24:32.174Z,45.80
2018-04-29T13:27:08.273Z,45.80
2018-04-29T13:29:43.488Z,45.80
2018-04-29T13:32:19.456Z,44.60
2018-04-29T13:34:55.418Z,45.60
2018-04-29T13:37:30.540Z,45.60
2018-04-29T13:40:05.773Z,46.10
2018-04-29T13:42:41.146Z,46.40
2018-04-29T13:45:16.519Z,44.80
2018-04-29T13:47:52.456Z,46.20
2018-04-29T13:50:27.643Z,46.10
2018-04-29T13:53:03.157Z,48.10
2018-04-29T13:55:38.389Z,46.90
2018-04-29T14:00:55.829Z,46.50
2018-04-29T14:03:31.004Z,46.50
2018-04-29T14:06:06.270Z,46.90
2018-04-29T14:08:41.376Z,47.40
2018-04-29T14:11:16.646Z,48.00
2018-04-29T14:13:51.958Z,48.00
2018-04-29T14:16:27.255Z,46.80
2018-04-29T14:19:03.284Z,46.60
2018-04-29T14:21:39.317Z,46.60
2018-04-29T14:24:14.373Z,46.70
2018-04-29T14:26:51.036Z,46.30
2018-04-29T14:29:26.286Z,46.30
2018-04-29T14:32:01.466Z,46.50
2018-04-29T14:34:36.726Z,45.90
2018-04-29T14:37:12.021Z,46.20
2018-04-29T14:39:47.343Z,46.10
2018-04-29T14:42:22.736Z,46.20
2018-04-29T14:44:58.010Z,47.00
2018-04-29T14:47:33.215Z,46.80
2018-04-29T14:50:08.587Z,46.70
2018-04-29T14:52:44.003Z,47.40
2018-04-29T14:55:19.184Z,46.90
2018-04-29T14:57:54.306Z,47.90
2018-04-29T15:00:29.561Z,48.80
2018-04-29T15:03:05.439Z,49.70
2018-04-29T15:05:40.543Z,49.50
2018-04-29T15:25:41.636Z,48.50
2018-04-29T15:28:16.878Z,40.00
2018-04-29T15:30:52.229Z,38.40
2018-04-29T15:33:27.661Z,37.60
2018-04-29T15:36:02.900Z,38.10
2018-04-29T15:38:38.339Z,37.80
2018-04-29T15:41:14.109Z,37.10
2018-04-29T15:43:49.439Z,37.70
2018-04-29T15:46:25.470Z,38.30
2018-04-29T15:49:00.522Z,38.20
2018-04-29T15:51:35.750Z,38.10
2018-04-29T16:07:02.510Z,38.10
2018-04-29T16:09:38.492Z,38.20
2018-04-29T16:12:13.784Z,38.20
2018-04-29T16:14:49.674Z,38.30
2018-04-29T16:17:24.818Z,38.30
2018-04-29T16:20:00.264Z,38.20
2018-04-29T16:22:36.261Z,39.00
2018-04-29T16:25:11.543Z,39.00
2018-04-29T16:27:46.903Z,39.40
2018-04-29T16:30:22.037Z,39.90
2018-04-29T16:32:58.104Z,40.00
2018-04-29T16:35:34.059Z,40.40
2018-04-29T16:38:09.368Z,40.40
2018-04-29T16:40:45.321Z,39.80
2018-04-29T16:43:20.532Z,39.90
2018-04-29T16:45:55.680Z,41.00
2018-04-29T16:48:31.666Z,41.60
2018-04-29T16:51:07.638Z,41.30
2018-04-29T16:53:42.983Z,41.30
2018-04-29T16:56:18.183Z,41.70
2018-04-29T16:58:54.052Z,42.60
2018-04-29T17:01:30.009Z,43.10
2018-04-29T17:04:05.875Z,43.40
2018-04-29T17:06:41.918Z,43.70
2018-04-29T17:09:17.263Z,43.70
2018-04-29T17:11:52.607Z,44.00
2018-04-29T17:14:27.871Z,44.10
2018-04-29T17:17:03.210Z,44.10
2018-04-29T17:19:38.263Z,44.30
2018-04-29T17:22:14.302Z,44.30
2018-04-29T17:24:49.402Z,44.40
2018-04-29T17:27:25.219Z,44.90
2018-04-29T17:30:00.501Z,44.60
2018-04-29T17:32:35.733Z,44.70
2018-04-29T17:35:11.105Z,44.90
2018-04-29T17:37:47.059Z,44.60
2018-04-29T17:40:22.197Z,44.70
2018-04-29T17:42:57.401Z,44.90
2018-04-29T17:45:32.705Z,44.80
2018-04-29T17:48:08.639Z,44.70
2018-04-29T17:50:44.551Z,44.70
2018-04-29T17:53:20.482Z,46.30
2018-04-29T17:55:57.318Z,46.30
2018-04-29T17:58:32.562Z,46.80
2018-04-29T18:01:07.882Z,47.20
2018-04-29T18:03:43.240Z,47.70
2018-04-29T18:06:18.443Z,48.20
2018-04-29T18:08:53.585Z,48.90
2018-04-29T18:11:28.869Z,49.50
2018-04-29T18:14:04.083Z,49.80
2018-04-29T18:16:39.974Z,50.40
2018-04-29T18:19:15.996Z,50.60
2018-04-29T18:21:53.007Z,51.30
2018-04-29T18:24:28.344Z,51.30
2018-04-29T18:27:03.464Z,51.50
2018-04-29T18:29:38.799Z,51.70
2018-04-29T18:32:14.042Z,51.90
2018-04-29T18:34:49.153Z,52.40
2018-04-29T18:37:24.885Z,52.80
2018-04-29T18:40:00.080Z,53.40
2018-04-29T18:42:37.816Z,54.30
2018-04-29T18:45:13.219Z,54.10
2018-04-29T18:47:49.068Z,54.10
2018-04-29T18:50:25.122Z,54.70
2018-04-29T18:53:00.347Z,54.70
2018-04-29T18:55:35.633Z,54.90
2018-04-29T18:58:10.801Z,55.10
2018-04-29T19:00:46.104Z,55.40
2018-04-29T19:03:22.110Z,56.00
2018-04-29T19:05:59.980Z,56.10
2018-04-29T19:08:36.023Z,56.30
2018-04-29T19:11:12.010Z,56.30
2018-04-29T19:13:47.166Z,56.30
2018-04-29T19:16:22.382Z,56.60
2018-04-29T19:18:58.387Z,57.30
2018-04-29T19:21:34.732Z,57.10
2018-04-29T19:24:10.041Z,57.10
2018-04-29T19:26:45.153Z,57.70
2018-04-29T19:29:20.466Z,58.00
2018-04-29T19:31:56.056Z,57.90
2018-04-29T19:34:31.313Z,58.30
2018-04-29T19:37:06.576Z,58.40
2018-04-29T19:39:41.842Z,58.30
2018-04-29T19:42:17.705Z,58.70
2018-04-29T19:44:53.854Z,58.80
2018-04-29T19:47:29.184Z,58.80
2018-04-29T19:50:04.527Z,58.60
2018-04-29T19:52:40.457Z,58.60
2018-04-29T19:55:15.728Z,58.40
2018-04-29T19:57:52.156Z,58.30
2018-04-29T20:00:29.444Z,58.30
2018-04-29T20:03:04.663Z,58.60
2018-04-29T20:05:39.777Z,58.40
2018-04-29T20:08:16.858Z,58.50
2018-04-29T20:10:52.207Z,58.40
2018-04-29T20:13:27.512Z,58.60
2018-04-29T20:16:02.792Z,58.80
2018-04-29T20:18:38.066Z,59.00
2018-04-29T20:21:13.270Z,59.30
2018-04-29T20:23:48.665Z,59.50
2018-04-29T20:26:23.923Z,59.70
2018-04-29T20:28:59.266Z,60.20
2018-04-29T20:31:34.500Z,60.60
2018-04-29T20:34:09.751Z,60.80
2018-04-29T20:36:45.918Z,62.50
2018-04-29T20:39:21.224Z,61.60
2018-04-29T20:41:57.254Z,62.30
2018-04-29T20:44:32.409Z,62.20
2018-04-29T20:47:07.675Z,62.60
2018-04-29T20:49:42.745Z,62.80
2018-04-29T20:52:18.001Z,62.80
2018-04-29T20:54:53.327Z,62.60
2018-04-29T20:57:29.297Z,62.80
2018-04-29T21:00:04.436Z,62.80
2018-04-29T21:02:39.593Z,63.70
2018-04-29T21:05:15.669Z,63.20
2018-04-29T21:07:50.887Z,63.20
2018-04-29T21:10:26.793Z,63.00
2018-04-29T21:13:05.023Z,63.30
2018-04-29T21:15:40.379Z,63.30
2018-04-29T21:18:15.596Z,63.20
2018-04-29T21:20:50.808Z,63.30
2018-04-29T21:23:26.085Z,63.50
2018-04-29T21:26:01.499Z,63.40
2018-04-29T21:28:37.516Z,63.40
2018-04-29T21:31:12.848Z,63.20
2018-04-29T21:33:48.988Z,63.60
2018-04-29T21:36:25.055Z,63.80
2018-04-29T21:39:00.379Z,63.70
2018-04-29T21:41:35.630Z,64.10
2018-04-29T21:44:10.834Z,64.00
2018-04-29T21:46:46.094Z,64.10
2018-04-29T21:49:21.431Z,64.10
2018-04-29T21:51:56.557Z,64.10
2018-04-29T21:54:31.751Z,64.30
2018-04-29T21:57:07.744Z,64.20
2018-04-29T21:59:43.117Z,64.20
2018-04-29T22:02:18.439Z,64.20
2018-04-29T22:04:53.630Z,64.20
2018-04-29T22:07:29.017Z,64.50
2018-04-29T22:10:04.360Z,64.20
2018-04-29T22:12:39.601Z,64.10
2018-04-29T22:15:15.168Z,63.80
2018-04-29T22:17:50.516Z,63.60
2018-04-29T22:20:25.857Z,63.60
2018-04-29T22:23:01.260Z,63.60
2018-04-29T22:25:36.399Z,62.80
2018-04-29T22:28:12.065Z,62.90
2018-04-29T22:30:48.098Z,62.60
2018-04-29T22:33:23.468Z,62.50
2018-04-29T22:35:58.741Z,62.50
2018-04-29T22:38:34.960Z,62.80
2018-04-29T22:41:10.079Z,62.70
2018-04-29T22:43:45.532Z,63.60
2018-04-29T22:46:21.592Z,64.20
2018-04-29T22:48:57.017Z,64.20
2018-04-29T22:51:32.267Z,64.20
2018-04-29T22:54:07.522Z,64.20
2018-04-29T22:56:42.851Z,63.50
2018-04-29T22:59:18.167Z,64.00
2018-04-29T23:01:53.438Z,64.30
2018-04-29T23:04:28.914Z,64.60
2018-04-29T23:07:04.218Z,65.10
2018-04-29T23:09:39.604Z,64.70
2018-04-29T23:12:14.726Z,64.70
2018-04-29T23:14:50.116Z,64.60
2018-04-29T23:17:26.098Z,63.70
2018-04-29T23:20:01.442Z,63.70
2018-04-29T23:22:36.698Z,63.70
2018-04-29T23:25:12.035Z,63.50
2018-04-29T23:27:47.414Z,64.80
2018-04-29T23:30:23.464Z,60.10
2018-04-29T23:32:58.699Z,60.10
2018-04-29T23:35:34.959Z,61.30
2018-04-29T23:38:10.250Z,61.50
2018-04-29T23:40:45.541Z,62.50
2018-04-29T23:43:20.929Z,62.80
2018-04-29T23:45:57.009Z,64.20
2018-04-29T23:48:35.208Z,64.40
2018-04-29T23:51:10.412Z,64.30
2018-04-29T23:53:45.715Z,62.50
2018-04-29T23:56:20.792Z,62.80
2018-04-29T23:58:56.457Z,62.50
